This is the latest recevied weather packets stored in our database for station/object YO6FNF-10. If no packets are shown the sender has not sent any weather packets the latest 1 day(s).
| Time | Temp. | Humidity | Pressure | Rain* | Wind** | Luminosity | Snow |
|---|---|---|---|---|---|---|---|
| 1777786136 | 3.33° C | 72% | 1025.3 hPa | - | - | - | - |
| 1777785236 | 2.78° C | 74% | 1025.3 hPa | - | - | - | - |
| 1777784336 | 2.22° C | 78% | 1025.2 hPa | - | - | - | - |
| 1777783436 | 1.11° C | 81% | 1025.1 hPa | - | - | - | - |
| 1777782535 | 1.11° C | 81% | 1025 hPa | - | - | - | - |
| 1777781635 | 0.56° C | 82% | 1024.8 hPa | - | - | - | - |
| 1777780735 | 0.56° C | 81% | 1024.8 hPa | - | - | - | - |
| 1777779835 | 0.56° C | 80% | 1024.6 hPa | - | - | - | - |
| 1777778934 | 0.56° C | 81% | 1024.5 hPa | - | - | - | - |
| 1777778034 | 0.56° C | 81% | 1024.5 hPa | - | - | - | - |
| 1777777134 | 0° C | 82% | 1024.4 hPa | - | - | - | - |
| 1777776234 | 0.56° C | 80% | 1024.3 hPa | - | - | - | - |
| 1777775334 | 0.56° C | 81% | 1024.2 hPa | - | - | - | - |
| 1777774433 | 1.11° C | 79% | 1024.2 hPa | - | - | - | - |
| 1777773533 | 1.11° C | 80% | 1024.2 hPa | - | - | - | - |
| 1777772633 | 0.56° C | 81% | 1024.2 hPa | - | - | - | - |
| 1777771733 | 0.56° C | 81% | 1024.2 hPa | - | - | - | - |
| 1777770833 | 0.56° C | 80% | 1024.3 hPa | - | - | - | - |
| 1777769933 | 0.56° C | 79% | 1024.2 hPa | - | - | - | - |
| 1777769032 | 0.56° C | 79% | 1024.2 hPa | - | - | - | - |
| 1777768132 | 0.56° C | 78% | 1024.2 hPa | - | - | - | - |
| 1777767232 | 0.56° C | 78% | 1024.3 hPa | - | - | - | - |
| 1777766332 | 0.56° C | 75% | 1024.3 hPa | - | - | - | - |
| 1777765432 | 0.56° C | 76% | 1024.3 hPa | - | - | - | - |
| 1777764532 | 1.11° C | 76% | 1024.4 hPa | - | - | - | - |
* Rain since midnight (hover to see other rain measurements)
** Current wind speed in m/s (hover to see current wind gust speed)